sensor_id;sensor_type;location;lat;lon;timestamp;P1;durP1;ratioP1;P2;durP2;ratioP2
69795;SDS011;57073;45.650;9.612;2023-04-16T00:03:33;10.83;;;7.47;;
69795;SDS011;57073;45.650;9.612;2023-04-16T00:08:33;12.20;;;7.30;;
69795;SDS011;57073;45.650;9.612;2023-04-16T00:13:34;13.15;;;7.47;;
69795;SDS011;57073;45.650;9.612;2023-04-16T00:18:35;10.73;;;7.50;;
69795;SDS011;57073;45.650;9.612;2023-04-16T00:23:35;9.27;;;7.40;;
69795;SDS011;57073;45.650;9.612;2023-04-16T00:28:36;11.50;;;7.30;;
69795;SDS011;57073;45.650;9.612;2023-04-16T00:33:37;12.90;;;7.57;;
69795;SDS011;57073;45.650;9.612;2023-04-16T00:38:37;10.63;;;7.80;;
69795;SDS011;57073;45.650;9.612;2023-04-16T00:43:37;12.60;;;7.60;;
69795;SDS011;57073;45.650;9.612;2023-04-16T00:48:39;10.23;;;7.60;;
69795;SDS011;57073;45.650;9.612;2023-04-16T00:53:40;12.60;;;7.27;;
69795;SDS011;57073;45.650;9.612;2023-04-16T00:58:40;10.27;;;6.80;;
69795;SDS011;57073;45.650;9.612;2023-04-16T01:03:45;13.13;;;7.67;;
69795;SDS011;57073;45.650;9.612;2023-04-16T01:08:47;10.52;;;6.97;;
69795;SDS011;57073;45.650;9.612;2023-04-16T01:13:47;10.37;;;6.73;;
69795;SDS011;57073;45.650;9.612;2023-04-16T01:18:48;9.67;;;6.90;;
69795;SDS011;57073;45.650;9.612;2023-04-16T01:23:48;10.03;;;6.73;;
69795;SDS011;57073;45.650;9.612;2023-04-16T01:28:48;7.60;;;5.87;;
69795;SDS011;57073;45.650;9.612;2023-04-16T01:33:49;10.80;;;6.20;;
69795;SDS011;57073;45.650;9.612;2023-04-16T01:38:49;10.27;;;6.27;;
69795;SDS011;57073;45.650;9.612;2023-04-16T01:43:50;10.23;;;6.13;;
69795;SDS011;57073;45.650;9.612;2023-04-16T01:48:50;8.83;;;5.77;;
69795;SDS011;57073;45.650;9.612;2023-04-16T01:53:53;8.33;;;5.60;;
69795;SDS011;57073;45.650;9.612;2023-04-16T01:58:54;9.52;;;5.63;;
69795;SDS011;57073;45.650;9.612;2023-04-16T02:03:55;9.03;;;5.37;;
69795;SDS011;57073;45.650;9.612;2023-04-16T02:08:56;7.85;;;5.60;;
69795;SDS011;57073;45.650;9.612;2023-04-16T02:13:56;7.60;;;5.70;;
69795;SDS011;57073;45.650;9.612;2023-04-16T02:18:56;8.03;;;5.10;;
69795;SDS011;57073;45.650;9.612;2023-04-16T02:23:56;7.47;;;5.30;;
69795;SDS011;57073;45.650;9.612;2023-04-16T02:28:57;10.70;;;5.77;;
69795;SDS011;57073;45.650;9.612;2023-04-16T02:33:57;7.90;;;5.00;;
69795;SDS011;57073;45.650;9.612;2023-04-16T02:38:58;8.43;;;5.10;;
69795;SDS011;57073;45.650;9.612;2023-04-16T02:43:58;8.73;;;4.53;;
69795;SDS011;57073;45.650;9.612;2023-04-16T02:48:59;6.60;;;4.80;;
69795;SDS011;57073;45.650;9.612;2023-04-16T02:53:59;6.87;;;4.83;;
69795;SDS011;57073;45.650;9.612;2023-04-16T02:58:59;6.87;;;4.40;;
69795;SDS011;57073;45.650;9.612;2023-04-16T03:04:00;7.23;;;4.80;;
69795;SDS011;57073;45.650;9.612;2023-04-16T03:09:00;7.65;;;4.80;;
69795;SDS011;57073;45.650;9.612;2023-04-16T03:14:00;9.47;;;5.50;;
69795;SDS011;57073;45.650;9.612;2023-04-16T03:19:01;9.48;;;4.53;;
69795;SDS011;57073;45.650;9.612;2023-04-16T03:24:01;7.57;;;4.47;;
69795;SDS011;57073;45.650;9.612;2023-04-16T03:29:02;6.77;;;4.33;;
69795;SDS011;57073;45.650;9.612;2023-04-16T03:34:02;8.05;;;4.80;;
69795;SDS011;57073;45.650;9.612;2023-04-16T03:39:02;6.73;;;4.30;;
69795;SDS011;57073;45.650;9.612;2023-04-16T03:44:03;7.90;;;4.20;;
69795;SDS011;57073;45.650;9.612;2023-04-16T03:49:03;7.00;;;4.10;;
69795;SDS011;57073;45.650;9.612;2023-04-16T03:54:03;5.43;;;3.63;;
69795;SDS011;57073;45.650;9.612;2023-04-16T03:59:04;6.07;;;3.70;;
69795;SDS011;57073;45.650;9.612;2023-04-16T04:04:04;5.73;;;3.47;;
69795;SDS011;57073;45.650;9.612;2023-04-16T04:09:05;5.77;;;3.50;;
69795;SDS011;57073;45.650;9.612;2023-04-16T04:14:05;5.47;;;3.40;;
69795;SDS011;57073;45.650;9.612;2023-04-16T04:19:05;6.80;;;3.10;;
69795;SDS011;57073;45.650;9.612;2023-04-16T04:24:06;3.73;;;2.70;;
69795;SDS011;57073;45.650;9.612;2023-04-16T04:29:06;4.90;;;2.90;;
69795;SDS011;57073;45.650;9.612;2023-04-16T04:34:06;4.83;;;2.70;;
69795;SDS011;57073;45.650;9.612;2023-04-16T04:39:07;4.40;;;2.80;;
69795;SDS011;57073;45.650;9.612;2023-04-16T04:44:07;6.80;;;3.07;;
69795;SDS011;57073;45.650;9.612;2023-04-16T04:49:07;5.23;;;2.80;;
69795;SDS011;57073;45.650;9.612;2023-04-16T04:54:08;4.67;;;3.10;;
69795;SDS011;57073;45.650;9.612;2023-04-16T04:59:08;5.40;;;2.83;;
69795;SDS011;57073;45.650;9.612;2023-04-16T05:04:08;4.73;;;2.87;;
69795;SDS011;57073;45.650;9.612;2023-04-16T05:09:09;5.63;;;3.20;;
69795;SDS011;57073;45.650;9.612;2023-04-16T05:14:10;5.57;;;3.20;;
69795;SDS011;57073;45.650;9.612;2023-04-16T05:19:11;5.13;;;3.50;;
69795;SDS011;57073;45.650;9.612;2023-04-16T05:24:11;7.93;;;3.80;;
69795;SDS011;57073;45.650;9.612;2023-04-16T05:29:11;6.80;;;3.73;;
69795;SDS011;57073;45.650;9.612;2023-04-16T05:34:11;6.57;;;3.40;;
69795;SDS011;57073;45.650;9.612;2023-04-16T05:39:12;6.50;;;4.30;;
69795;SDS011;57073;45.650;9.612;2023-04-16T05:44:12;7.83;;;4.60;;
69795;SDS011;57073;45.650;9.612;2023-04-16T05:49:15;8.73;;;4.70;;
69795;SDS011;57073;45.650;9.612;2023-04-16T05:54:17;6.93;;;4.30;;
69795;SDS011;57073;45.650;9.612;2023-04-16T05:59:17;8.73;;;4.60;;
69795;SDS011;57073;45.650;9.612;2023-04-16T06:04:18;7.63;;;4.70;;
69795;SDS011;57073;45.650;9.612;2023-04-16T06:09:18;5.67;;;4.30;;
69795;SDS011;57073;45.650;9.612;2023-04-16T06:14:18;5.90;;;4.07;;
69795;SDS011;57073;45.650;9.612;2023-04-16T06:19:19;6.67;;;4.00;;
69795;SDS011;57073;45.650;9.612;2023-04-16T06:24:19;8.00;;;4.17;;
69795;SDS011;57073;45.650;9.612;2023-04-16T06:29:20;6.20;;;3.80;;
69795;SDS011;57073;45.650;9.612;2023-04-16T06:34:20;5.70;;;3.77;;
69795;SDS011;57073;45.650;9.612;2023-04-16T06:39:20;6.93;;;3.80;;
69795;SDS011;57073;45.650;9.612;2023-04-16T06:44:21;6.50;;;3.93;;
69795;SDS011;57073;45.650;9.612;2023-04-16T06:49:21;4.20;;;2.93;;
69795;SDS011;57073;45.650;9.612;2023-04-16T06:54:21;6.00;;;3.15;;
69795;SDS011;57073;45.650;9.612;2023-04-16T06:59:22;5.20;;;2.90;;
69795;SDS011;57073;45.650;9.612;2023-04-16T07:04:22;4.20;;;2.20;;
69795;SDS011;57073;45.650;9.612;2023-04-16T07:09:22;3.97;;;2.47;;
69795;SDS011;57073;45.650;9.612;2023-04-16T07:14:23;4.10;;;2.10;;
69795;SDS011;57073;45.650;9.612;2023-04-16T07:19:24;3.77;;;2.10;;
69795;SDS011;57073;45.650;9.612;2023-04-16T07:24:24;4.00;;;1.73;;
69795;SDS011;57073;45.650;9.612;2023-04-16T07:29:25;5.80;;;1.17;;
69795;SDS011;57073;45.650;9.612;2023-04-16T07:34:25;5.27;;;1.00;;
69795;SDS011;57073;45.650;9.612;2023-04-16T07:39:25;5.33;;;1.43;;
69795;SDS011;57073;45.650;9.612;2023-04-16T07:44:26;2.47;;;1.10;;
69795;SDS011;57073;45.650;9.612;2023-04-16T07:49:26;4.93;;;1.20;;
69795;SDS011;57073;45.650;9.612;2023-04-16T07:54:27;3.53;;;1.10;;
69795;SDS011;57073;45.650;9.612;2023-04-16T07:59:27;4.90;;;1.00;;
69795;SDS011;57073;45.650;9.612;2023-04-16T08:04:27;4.70;;;0.97;;
69795;SDS011;57073;45.650;9.612;2023-04-16T08:09:28;6.00;;;1.03;;
69795;SDS011;57073;45.650;9.612;2023-04-16T08:14:28;3.67;;;1.33;;
69795;SDS011;57073;45.650;9.612;2023-04-16T08:19:28;4.20;;;1.50;;
69795;SDS011;57073;45.650;9.612;2023-04-16T08:24:29;3.20;;;1.67;;
69795;SDS011;57073;45.650;9.612;2023-04-16T08:29:30;5.82;;;1.27;;
69795;SDS011;57073;45.650;9.612;2023-04-16T08:34:31;4.80;;;1.17;;
69795;SDS011;57073;45.650;9.612;2023-04-16T08:39:31;3.43;;;0.87;;
69795;SDS011;57073;45.650;9.612;2023-04-16T08:44:33;4.13;;;0.90;;
69795;SDS011;57073;45.650;9.612;2023-04-16T08:49:36;5.60;;;0.88;;
69795;SDS011;57073;45.650;9.612;2023-04-16T08:55:03;3.17;;;0.68;;
69795;SDS011;57073;45.650;9.612;2023-04-16T09:00:08;3.40;;;0.97;;
69795;SDS011;57073;45.650;9.612;2023-04-16T09:05:13;2.72;;;0.90;;
69795;SDS011;57073;45.650;9.612;2023-04-16T09:10:18;2.45;;;0.80;;
69795;SDS011;57073;45.650;9.612;2023-04-16T09:15:19;6.05;;;1.00;;
69795;SDS011;57073;45.650;9.612;2023-04-16T09:20:19;2.07;;;1.00;;
69795;SDS011;57073;45.650;9.612;2023-04-16T09:25:20;3.43;;;1.00;;
69795;SDS011;57073;45.650;9.612;2023-04-16T09:30:22;4.53;;;1.20;;
69795;SDS011;57073;45.650;9.612;2023-04-16T09:35:26;5.17;;;1.60;;
69795;SDS011;57073;45.650;9.612;2023-04-16T09:40:26;6.00;;;1.50;;
69795;SDS011;57073;45.650;9.612;2023-04-16T09:45:32;3.78;;;1.10;;
69795;SDS011;57073;45.650;9.612;2023-04-16T09:50:50;5.13;;;1.40;;
69795;SDS011;57073;45.650;9.612;2023-04-16T09:55:50;4.97;;;1.30;;
69795;SDS011;57073;45.650;9.612;2023-04-16T10:01:10;5.13;;;1.77;;
69795;SDS011;57073;45.650;9.612;2023-04-16T10:06:15;4.47;;;1.35;;
69795;SDS011;57073;45.650;9.612;2023-04-16T10:11:19;4.15;;;2.15;;
69795;SDS011;57073;45.650;9.612;2023-04-16T10:16:21;4.97;;;1.90;;
69795;SDS011;57073;45.650;9.612;2023-04-16T10:21:21;6.40;;;2.90;;
69795;SDS011;57073;45.650;9.612;2023-04-16T10:26:22;6.78;;;2.13;;
69795;SDS011;57073;45.650;9.612;2023-04-16T10:31:23;6.73;;;2.80;;
69795;SDS011;57073;45.650;9.612;2023-04-16T10:36:25;5.57;;;2.20;;
69795;SDS011;57073;45.650;9.612;2023-04-16T10:41:25;11.70;;;5.00;;
69795;SDS011;57073;45.650;9.612;2023-04-16T10:46:30;5.20;;;2.30;;
69795;SDS011;57073;45.650;9.612;2023-04-16T10:51:33;6.45;;;2.60;;
69795;SDS011;57073;45.650;9.612;2023-04-16T10:56:35;4.90;;;2.30;;
69795;SDS011;57073;45.650;9.612;2023-04-16T11:01:37;4.77;;;2.57;;
69795;SDS011;57073;45.650;9.612;2023-04-16T11:06:41;6.85;;;2.95;;
69795;SDS011;57073;45.650;9.612;2023-04-16T11:12:01;5.03;;;2.65;;
69795;SDS011;57073;45.650;9.612;2023-04-16T11:17:05;5.43;;;2.80;;
69795;SDS011;57073;45.650;9.612;2023-04-16T11:22:05;6.53;;;2.50;;
69795;SDS011;57073;45.650;9.612;2023-04-16T11:27:06;9.35;;;4.28;;
69795;SDS011;57073;45.650;9.612;2023-04-16T11:32:07;4.87;;;2.57;;
69795;SDS011;57073;45.650;9.612;2023-04-16T11:37:07;5.68;;;2.63;;
69795;SDS011;57073;45.650;9.612;2023-04-16T11:42:08;3.70;;;2.60;;
69795;SDS011;57073;45.650;9.612;2023-04-16T11:47:08;4.37;;;2.83;;
69795;SDS011;57073;45.650;9.612;2023-04-16T11:52:08;7.30;;;3.27;;
69795;SDS011;57073;45.650;9.612;2023-04-16T11:57:09;5.70;;;3.17;;
69795;SDS011;57073;45.650;9.612;2023-04-16T12:02:10;6.23;;;3.07;;
69795;SDS011;57073;45.650;9.612;2023-04-16T12:07:11;5.33;;;3.30;;
69795;SDS011;57073;45.650;9.612;2023-04-16T12:17:27;5.63;;;3.20;;
69795;SDS011;57073;45.650;9.612;2023-04-16T12:27:47;6.53;;;3.40;;
69795;SDS011;57073;45.650;9.612;2023-04-16T12:38:17;4.60;;;2.90;;
69795;SDS011;57073;45.650;9.612;2023-04-16T12:43:17;4.80;;;2.40;;
69795;SDS011;57073;45.650;9.612;2023-04-16T12:48:19;6.18;;;2.67;;
69795;SDS011;57073;45.650;9.612;2023-04-16T12:53:19;5.97;;;3.80;;
69795;SDS011;57073;45.650;9.612;2023-04-16T12:58:20;5.50;;;3.30;;
69795;SDS011;57073;45.650;9.612;2023-04-16T13:03:20;6.73;;;4.03;;
69795;SDS011;57073;45.650;9.612;2023-04-16T13:08:20;6.70;;;3.77;;
69795;SDS011;57073;45.650;9.612;2023-04-16T13:13:21;5.77;;;3.87;;
69795;SDS011;57073;45.650;9.612;2023-04-16T13:18:21;5.97;;;3.80;;
69795;SDS011;57073;45.650;9.612;2023-04-16T13:23:22;5.67;;;3.60;;
69795;SDS011;57073;45.650;9.612;2023-04-16T13:28:22;6.70;;;3.70;;
69795;SDS011;57073;45.650;9.612;2023-04-16T13:33:22;6.10;;;3.80;;
69795;SDS011;57073;45.650;9.612;2023-04-16T13:38:23;7.83;;;3.70;;
69795;SDS011;57073;45.650;9.612;2023-04-16T13:43:23;7.17;;;3.93;;
69795;SDS011;57073;45.650;9.612;2023-04-16T13:48:24;5.90;;;3.60;;
69795;SDS011;57073;45.650;9.612;2023-04-16T13:53:24;4.90;;;3.40;;
69795;SDS011;57073;45.650;9.612;2023-04-16T13:58:25;5.47;;;3.40;;
69795;SDS011;57073;45.650;9.612;2023-04-16T14:03:25;6.33;;;4.30;;
69795;SDS011;57073;45.650;9.612;2023-04-16T14:08:25;5.50;;;4.20;;
69795;SDS011;57073;45.650;9.612;2023-04-16T14:13:26;6.97;;;4.37;;
69795;SDS011;57073;45.650;9.612;2023-04-16T14:18:26;8.47;;;4.97;;
69795;SDS011;57073;45.650;9.612;2023-04-16T14:23:27;9.43;;;5.10;;
69795;SDS011;57073;45.650;9.612;2023-04-16T14:28:27;6.93;;;5.07;;
69795;SDS011;57073;45.650;9.612;2023-04-16T14:33:28;10.10;;;5.03;;
69795;SDS011;57073;45.650;9.612;2023-04-16T14:38:28;8.83;;;5.00;;
69795;SDS011;57073;45.650;9.612;2023-04-16T14:43:29;10.77;;;5.43;;
69795;SDS011;57073;45.650;9.612;2023-04-16T14:48:29;7.70;;;4.80;;
69795;SDS011;57073;45.650;9.612;2023-04-16T14:53:30;8.80;;;5.30;;
69795;SDS011;57073;45.650;9.612;2023-04-16T14:58:31;7.33;;;4.87;;
69795;SDS011;57073;45.650;9.612;2023-04-16T15:03:31;6.87;;;3.93;;
69795;SDS011;57073;45.650;9.612;2023-04-16T15:08:33;7.07;;;4.33;;
69795;SDS011;57073;45.650;9.612;2023-04-16T15:13:33;6.88;;;4.50;;
69795;SDS011;57073;45.650;9.612;2023-04-16T15:18:34;6.80;;;4.30;;
69795;SDS011;57073;45.650;9.612;2023-04-16T15:23:35;7.47;;;4.50;;
69795;SDS011;57073;45.650;9.612;2023-04-16T15:28:35;6.50;;;4.73;;
69795;SDS011;57073;45.650;9.612;2023-04-16T15:33:35;8.33;;;4.90;;
69795;SDS011;57073;45.650;9.612;2023-04-16T15:38:36;8.17;;;4.90;;
69795;SDS011;57073;45.650;9.612;2023-04-16T15:43:36;7.20;;;4.30;;
69795;SDS011;57073;45.650;9.612;2023-04-16T15:48:37;7.78;;;4.55;;
69795;SDS011;57073;45.650;9.612;2023-04-16T15:53:37;9.03;;;4.90;;
69795;SDS011;57073;45.650;9.612;2023-04-16T15:58:37;8.20;;;4.97;;
69795;SDS011;57073;45.650;9.612;2023-04-16T16:03:38;9.23;;;5.40;;
69795;SDS011;57073;45.650;9.612;2023-04-16T16:08:40;7.78;;;5.13;;
69795;SDS011;57073;45.650;9.612;2023-04-16T16:13:40;9.17;;;5.63;;
69795;SDS011;57073;45.650;9.612;2023-04-16T16:18:42;9.82;;;4.88;;
69795;SDS011;57073;45.650;9.612;2023-04-16T16:23:42;7.03;;;5.00;;
69795;SDS011;57073;45.650;9.612;2023-04-16T16:28:43;10.20;;;5.37;;
69795;SDS011;57073;45.650;9.612;2023-04-16T16:33:43;9.60;;;5.27;;
69795;SDS011;57073;45.650;9.612;2023-04-16T16:38:44;8.63;;;5.13;;
69795;SDS011;57073;45.650;9.612;2023-04-16T16:43:46;8.70;;;4.97;;
69795;SDS011;57073;45.650;9.612;2023-04-16T16:48:46;8.03;;;4.80;;
69795;SDS011;57073;45.650;9.612;2023-04-16T16:53:46;10.50;;;4.90;;
69795;SDS011;57073;45.650;9.612;2023-04-16T16:58:47;9.47;;;5.60;;
69795;SDS011;57073;45.650;9.612;2023-04-16T17:03:47;8.00;;;4.80;;
69795;SDS011;57073;45.650;9.612;2023-04-16T17:08:47;8.45;;;5.15;;
69795;SDS011;57073;45.650;9.612;2023-04-16T17:13:48;8.47;;;5.23;;
69795;SDS011;57073;45.650;9.612;2023-04-16T17:18:48;6.80;;;5.10;;
69795;SDS011;57073;45.650;9.612;2023-04-16T17:23:49;8.43;;;4.97;;
69795;SDS011;57073;45.650;9.612;2023-04-16T17:28:49;7.13;;;4.50;;
69795;SDS011;57073;45.650;9.612;2023-04-16T17:33:50;9.03;;;5.33;;
69795;SDS011;57073;45.650;9.612;2023-04-16T17:38:50;8.83;;;5.40;;
69795;SDS011;57073;45.650;9.612;2023-04-16T17:43:50;9.43;;;5.70;;
69795;SDS011;57073;45.650;9.612;2023-04-16T17:48:51;10.50;;;6.13;;
69795;SDS011;57073;45.650;9.612;2023-04-16T17:53:51;8.30;;;5.83;;
69795;SDS011;57073;45.650;9.612;2023-04-16T17:58:52;9.68;;;6.07;;
69795;SDS011;57073;45.650;9.612;2023-04-16T18:03:52;8.17;;;5.90;;
69795;SDS011;57073;45.650;9.612;2023-04-16T18:08:52;9.13;;;6.03;;
69795;SDS011;57073;45.650;9.612;2023-04-16T18:13:53;10.73;;;6.37;;
69795;SDS011;57073;45.650;9.612;2023-04-16T18:18:53;11.53;;;6.80;;
69795;SDS011;57073;45.650;9.612;2023-04-16T18:23:53;10.80;;;6.40;;
69795;SDS011;57073;45.650;9.612;2023-04-16T18:28:54;10.63;;;6.10;;
69795;SDS011;57073;45.650;9.612;2023-04-16T18:33:54;10.10;;;6.50;;
69795;SDS011;57073;45.650;9.612;2023-04-16T18:38:54;10.03;;;6.10;;
69795;SDS011;57073;45.650;9.612;2023-04-16T18:43:55;10.07;;;6.63;;
69795;SDS011;57073;45.650;9.612;2023-04-16T18:48:56;13.00;;;6.53;;
69795;SDS011;57073;45.650;9.612;2023-04-16T18:53:58;10.77;;;6.38;;
69795;SDS011;57073;45.650;9.612;2023-04-16T18:58:58;9.13;;;6.10;;
69795;SDS011;57073;45.650;9.612;2023-04-16T19:03:58;9.00;;;5.60;;
69795;SDS011;57073;45.650;9.612;2023-04-16T19:08:59;8.83;;;5.83;;
69795;SDS011;57073;45.650;9.612;2023-04-16T19:14:00;12.17;;;6.20;;
69795;SDS011;57073;45.650;9.612;2023-04-16T19:19:01;10.93;;;5.70;;
69795;SDS011;57073;45.650;9.612;2023-04-16T19:24:01;9.47;;;5.93;;
69795;SDS011;57073;45.650;9.612;2023-04-16T19:29:01;9.77;;;6.23;;
69795;SDS011;57073;45.650;9.612;2023-04-16T19:34:02;8.93;;;5.25;;
69795;SDS011;57073;45.650;9.612;2023-04-16T19:39:02;7.80;;;4.60;;
69795;SDS011;57073;45.650;9.612;2023-04-16T19:44:03;7.35;;;5.00;;
69795;SDS011;57073;45.650;9.612;2023-04-16T19:49:04;9.63;;;5.30;;
69795;SDS011;57073;45.650;9.612;2023-04-16T19:54:04;7.90;;;5.17;;
69795;SDS011;57073;45.650;9.612;2023-04-16T19:59:05;6.93;;;4.47;;
69795;SDS011;57073;45.650;9.612;2023-04-16T20:04:05;5.30;;;3.70;;
69795;SDS011;57073;45.650;9.612;2023-04-16T20:09:06;5.60;;;3.73;;
69795;SDS011;57073;45.650;9.612;2023-04-16T20:14:06;6.73;;;3.40;;
69795;SDS011;57073;45.650;9.612;2023-04-16T20:19:06;4.35;;;3.00;;
69795;SDS011;57073;45.650;9.612;2023-04-16T20:24:07;4.20;;;3.00;;
69795;SDS011;57073;45.650;9.612;2023-04-16T20:29:09;6.03;;;2.90;;
69795;SDS011;57073;45.650;9.612;2023-04-16T20:34:09;4.53;;;3.00;;
69795;SDS011;57073;45.650;9.612;2023-04-16T20:39:10;4.77;;;3.23;;
69795;SDS011;57073;45.650;9.612;2023-04-16T20:44:11;5.53;;;3.03;;
69795;SDS011;57073;45.650;9.612;2023-04-16T20:49:17;5.40;;;3.00;;
69795;SDS011;57073;45.650;9.612;2023-04-16T20:54:17;5.77;;;3.30;;
69795;SDS011;57073;45.650;9.612;2023-04-16T20:59:17;5.93;;;2.60;;
69795;SDS011;57073;45.650;9.612;2023-04-16T21:04:18;4.20;;;2.50;;
69795;SDS011;57073;45.650;9.612;2023-04-16T21:09:18;4.93;;;2.80;;
69795;SDS011;57073;45.650;9.612;2023-04-16T21:14:19;4.60;;;2.80;;
69795;SDS011;57073;45.650;9.612;2023-04-16T21:19:20;5.20;;;2.70;;
69795;SDS011;57073;45.650;9.612;2023-04-16T21:24:21;4.80;;;2.60;;
69795;SDS011;57073;45.650;9.612;2023-04-16T21:29:21;4.65;;;3.20;;
69795;SDS011;57073;45.650;9.612;2023-04-16T21:34:22;4.97;;;2.67;;
69795;SDS011;57073;45.650;9.612;2023-04-16T21:39:22;4.23;;;2.60;;
69795;SDS011;57073;45.650;9.612;2023-04-16T21:44:24;5.17;;;2.70;;
69795;SDS011;57073;45.650;9.612;2023-04-16T21:49:25;4.37;;;2.40;;
69795;SDS011;57073;45.650;9.612;2023-04-16T21:54:25;4.30;;;2.10;;
69795;SDS011;57073;45.650;9.612;2023-04-16T21:59:25;2.97;;;1.83;;
69795;SDS011;57073;45.650;9.612;2023-04-16T22:04:26;2.87;;;1.70;;
69795;SDS011;57073;45.650;9.612;2023-04-16T22:09:36;3.25;;;1.50;;
69795;SDS011;57073;45.650;9.612;2023-04-16T22:14:40;3.10;;;1.47;;
69795;SDS011;57073;45.650;9.612;2023-04-16T22:19:40;2.75;;;1.30;;
69795;SDS011;57073;45.650;9.612;2023-04-16T22:24:41;2.40;;;1.40;;
69795;SDS011;57073;45.650;9.612;2023-04-16T22:29:41;2.73;;;1.77;;
69795;SDS011;57073;45.650;9.612;2023-04-16T22:34:42;2.97;;;1.67;;
69795;SDS011;57073;45.650;9.612;2023-04-16T22:39:42;2.57;;;1.60;;
69795;SDS011;57073;45.650;9.612;2023-04-16T22:44:42;2.50;;;1.60;;
69795;SDS011;57073;45.650;9.612;2023-04-16T22:49:43;3.00;;;1.70;;
69795;SDS011;57073;45.650;9.612;2023-04-16T22:54:43;2.40;;;1.50;;
69795;SDS011;57073;45.650;9.612;2023-04-16T22:59:43;2.13;;;1.30;;
69795;SDS011;57073;45.650;9.612;2023-04-16T23:04:44;2.57;;;1.60;;
69795;SDS011;57073;45.650;9.612;2023-04-16T23:09:45;3.60;;;1.67;;
69795;SDS011;57073;45.650;9.612;2023-04-16T23:14:45;2.50;;;1.60;;
69795;SDS011;57073;45.650;9.612;2023-04-16T23:19:47;5.03;;;2.58;;
69795;SDS011;57073;45.650;9.612;2023-04-16T23:24:47;3.92;;;2.30;;
69795;SDS011;57073;45.650;9.612;2023-04-16T23:29:47;3.90;;;2.47;;
69795;SDS011;57073;45.650;9.612;2023-04-16T23:34:48;4.67;;;3.00;;
69795;SDS011;57073;45.650;9.612;2023-04-16T23:39:48;5.43;;;2.83;;
69795;SDS011;57073;45.650;9.612;2023-04-16T23:44:48;5.47;;;2.80;;
69795;SDS011;57073;45.650;9.612;2023-04-16T23:49:49;4.30;;;2.93;;
69795;SDS011;57073;45.650;9.612;2023-04-16T23:54:49;4.67;;;2.70;;
69795;SDS011;57073;45.650;9.612;2023-04-16T23:59:50;4.80;;;3.00;;
